Bella Una — WDF6443 — position and weather

sailwx.info

Track history (hours):
 
Tides and Currents Weather Stations Pressure Air Temp Water Temp Dewpoint Dewpoint Depression Visibility Wind Speed Wind Dir Waves Ship Positions

Bella Una

Owner: Bella Una, LLC, Fort Lauderdale, FL. More information available from US FCC via Universal Licensing System and Coast Guard Vessel Documentation Center.

Last reported at 2015-Mar-27 15:29 UTC. Time now 2015-Mar-31 23:59 UTC.
Position N 18°17' W 064°50'.

Length 39 m; draft 2.2 m.

Type: Pleasure craft. MMSI: 366609000.

Date/timePositionNaut miles runAvg speedWind from/ knotsBaromVisibWave heightAir tempDewpointWater temp
2015-Mar-27 15:29N 18°17' W 064°50'5 5.5
2015-Mar-27 14:33N 18°21' W 064°47'5 3.7
2015-Mar-27 13:11N 18°23' W 064°42'0 0.0
2015-Mar-27 12:29N 18°23' W 064°42'0 0.0
2015-Mar-27 11:29N 18°23' W 064°42'0 0.0
2015-Mar-27 10:17N 18°23' W 064°42'0 0.0
2015-Mar-27 09:23N 18°23' W 064°42'0 0.0
2015-Mar-27 08:29N 18°23' W 064°42'0 0.0
2015-Mar-27 07:29N 18°23' W 064°42'0 0.0
2015-Mar-27 06:23N 18°23' W 064°42'0 0.0
2015-Mar-27 05:29N 18°23' W 064°42'0 0.0
2015-Mar-27 04:29N 18°23' W 064°42'0 0.0
2015-Mar-27 03:23N 18°23' W 064°42'0 0.0
2015-Mar-27 02:29N 18°23' W 064°42'0 0.0
2015-Mar-27 01:23N 18°23' W 064°42'0 0.0
2015-Mar-27 00:29N 18°23' W 064°42'0 0.0
2015-Mar-26 23:29N 18°23' W 064°42'0 0.0
2015-Mar-26 22:17N 18°23' W 064°42'0 0.0
2015-Mar-26 21:23N 18°23' W 064°42'0 0.0
2015-Mar-26 20:29N 18°23' W 064°42'0 0.0
2015-Mar-26 19:29N 18°23' W 064°42'0 0.0
2015-Mar-26 18:29N 18°23' W 064°42'0 0.0
2015-Mar-26 17:17N 18°23' W 064°42'0 0.0
2015-Mar-26 16:29N 18°23' W 064°42'3 3.3
2015-Mar-26 15:33N 18°26' W 064°41'2 0.1
2015-Mar-25 15:33N 18°27' W 064°43'11 7.8
2015-Mar-25 14:06N 18°25' W 064°31'5 8.2
2015-Mar-25 13:33N 18°22' W 064°34'6 0.1
2015-Mar-23 19:33N 18°26' W 064°29'  
2015-Mar-20 17:22N 18°26' W 064°29'  
2015-Mar-18 12:34N 18°17' W 064°50'1211.8
2015-Mar-18 11:32N 18°20' W 064°38'  
Track history (hours):
 
Tides and Currents Weather Stations Pressure Air Temp Water Temp Dewpoint Dewpoint Depression Visibility Wind Speed Wind Dir Waves Ship Positions

Bella Una

Owner: Bella Una, LLC, Fort Lauderdale, FL. More information available from US FCC via Universal Licensing System and Coast Guard Vessel Documentation Center.

Last reported at 2015-Mar-27 15:29 UTC. Time now 2015-Mar-31 23:59 UTC.
Position N 18°17' W 064°50'.

Length 39 m; draft 2.2 m.

Type: Pleasure craft. MMSI: 366609000.

Date/timePositionNaut miles runAvg speedWind from/ knotsBaromVisibWave heightAir tempDewpointWater temp
2015-Mar-27 15:29N 18°17' W 064°50'5 5.5
2015-Mar-27 14:33N 18°21' W 064°47'5 3.7
2015-Mar-27 13:11N 18°23' W 064°42'0 0.0
2015-Mar-27 12:29N 18°23' W 064°42'0 0.0
2015-Mar-27 11:29N 18°23' W 064°42'0 0.0
2015-Mar-27 10:17N 18°23' W 064°42'0 0.0
2015-Mar-27 09:23N 18°23' W 064°42'0 0.0
2015-Mar-27 08:29N 18°23' W 064°42'0 0.0
2015-Mar-27 07:29N 18°23' W 064°42'0 0.0
2015-Mar-27 06:23N 18°23' W 064°42'0 0.0
2015-Mar-27 05:29N 18°23' W 064°42'0 0.0
2015-Mar-27 04:29N 18°23' W 064°42'0 0.0
2015-Mar-27 03:23N 18°23' W 064°42'0 0.0
2015-Mar-27 02:29N 18°23' W 064°42'0 0.0
2015-Mar-27 01:23N 18°23' W 064°42'0 0.0
2015-Mar-27 00:29N 18°23' W 064°42'0 0.0
2015-Mar-26 23:29N 18°23' W 064°42'0 0.0
2015-Mar-26 22:17N 18°23' W 064°42'0 0.0
2015-Mar-26 21:23N 18°23' W 064°42'0 0.0
2015-Mar-26 20:29N 18°23' W 064°42'0 0.0
2015-Mar-26 19:29N 18°23' W 064°42'0 0.0
2015-Mar-26 18:29N 18°23' W 064°42'0 0.0
2015-Mar-26 17:17N 18°23' W 064°42'0 0.0
2015-Mar-26 16:29N 18°23' W 064°42'3 3.3
2015-Mar-26 15:33N 18°26' W 064°41'2 0.1
2015-Mar-25 15:33N 18°27' W 064°43'11 7.8
2015-Mar-25 14:06N 18°25' W 064°31'5 8.2
2015-Mar-25 13:33N 18°22' W 064°34'6 0.1
2015-Mar-23 19:33N 18°26' W 064°29'  
2015-Mar-20 17:22N 18°26' W 064°29'  
2015-Mar-18 12:34N 18°17' W 064°50'1211.8
2015-Mar-18 11:32N 18°20' W 064°38'  

Dump ship's entire track history